Flight Track Log - Related Links

Times and Time Zones

All times are in EDT time to prevent confusion due to time zone crossing. See the AWI3704 flight status page for this flight to view local times or setup timezone preferences in your user account.

Time Position Orientation Groundspeed Altitude Reporting Facility
EDT Latitude Longitude Course Direction KTS MPH feet Rate Location/Type
Sat 11:43:12 AM 42.7672 -73.8061 220° Southwest 149 171 1,500  Level Boston Center
Sat 11:43:36 AM 42.7839 -73.8064 359° North 154 177 2,500 2,943 Climbing Boston Center
Sat 11:44:05 AM 42.8003 -73.8322 311° West 183 211 4,100 2,360 Climbing Boston Center
Sat 11:45:00 AM 42.7334 -74.1719 270° West  Level FlightAware Approximate
Sat 11:45:05 AM 42.7931 -73.9256 264° West 214 246 6,000  Level Boston Center
Sat 11:46:00 AM 42.7333 -74.2959 270° West  Level FlightAware Approximate
Sat 11:46:05 AM 42.7872 -74.0300 266° West 248 285 8,600  Level Boston Center
Sat 11:47:00 AM 42.6717 -74.3840 220° Southwest  Level FlightAware Approximate
Sat 11:47:05 AM 42.7711 -74.1372 258° West 292 336 11,700  Level Boston Center
Sat 11:48:00 AM 42.6016 -74.4629 220° Southwest  Level FlightAware Approximate
Sat 11:48:05 AM 42.7572 -74.2358 259° West 297 342 13,800  Level Boston Center
Sat 11:49:05 AM 42.7158 -74.3475 243° Southwest 297 342 16,000 1,100 Climbing Boston Center
Sat 11:50:05 AM 42.6456 -74.4244 219° Southwest 329 379 16,000 100 Level Boston Center
Sat 11:51:05 AM 42.5647 -74.5178 220° Southwest 348 400 16,200 100 Climbing Boston Center
Sat 11:52:05 AM 42.4989 -74.5944 221° Southwest 353 406 16,200  Level Boston Center
Sat 11:53:05 AM 42.4178 -74.6872 220° Southwest 358 412 16,200 -59 Level Boston Center
Sat 11:55:30 AM 42.2347 -74.8964 220° Southwest 363 418 16,000 -58 Descending New York Center
Sat 11:56:31 AM 42.1633 -74.9758 220° Southwest 369 425 16,000  Level New York Center
Sat 11:57:31 AM 42.0667 -75.0536 211° Southwest 369 425 16,000  Level New York Center
Sat 11:58:32 AM 41.9767 -75.1258 211° Southwest 377 434 16,000  Level New York Center
Sat 11:59:29 AM 41.8867 -75.1978 211° Southwest 377 434 16,000  Level New York Center
Sat 12:00:29 PM 41.8050 -75.2675 212° Southwest 382 440 16,000  Level New York Center
Sat 12:01:32 PM 41.7169 -75.3367 210° Southwest 382 440 16,000 -836 Level New York Center
Sat 12:02:31 PM 41.6181 -75.4158 211° Southwest 382 440 14,300 -1,563 Descending New York Center
Sat 12:03:31 PM 41.5342 -75.4822 211° Southwest 376 433 12,900 -1,169 Descending New York Center
Sat 12:04:29 PM 41.4503 -75.5508 212° Southwest 369 425 12,000 -454 Descending New York Center
Sat 12:05:30 PM 41.3750 -75.6119 211° Southwest 364 419 12,000  Level New York Center
Sat 12:06:30 PM 41.2908 -75.6778 210° Southwest 359 413 12,000  Level New York Center
Sat 12:07:31 PM 41.1800 -75.6889 184° South 356 410 12,000  Level New York Center
Sat 12:08:31 PM 41.0811 -75.6653 170° South 361 415 12,000  Level New York Center
Sat 12:09:29 PM 40.9803 -75.6306 165° South 374 430 12,000  Level New York Center
Sat 12:10:31 PM 40.8817 -75.5961 165° South 379 436 12,000  Level New York Center
Sat 12:11:30 PM 40.7914 -75.5622 164° South 373 429 12,000  Level New York Center
Sat 12:12:30 PM 40.6911 -75.5222 163° South 373 429 12,000  Level New York Center
Sat 12:13:30 PM 40.5922 -75.4881 165° South 373 429 12,000 -550 Level New York Center
Sat 12:14:30 PM 40.4939 -75.4514 164° South 373 429 10,900 -1,613 Descending New York Center
Sat 12:15:29 PM 40.4078 -75.4100 160° South 351 404 8,800 -1,916 Descending New York Center
Sat 12:16:29 PM 40.3244 -75.3608 156° South 308 354 7,100 -1,537 Descending New York Center
Sat 12:17:30 PM 40.2492 -75.3125 154° Southeast 298 343 5,700 -1,041 Descending New York Center
Sat 12:18:30 PM 40.1819 -75.2728 156° South 293 337 5,000 -454 Descending New York Center
Sat 12:19:29 PM 40.1044 -75.2242 154° Southeast 288 331 4,800 -375 Descending New York Center
Sat 12:19:50 PM 40.0833 -75.2167 165° South 286 329 4,500 -593 Descending Philadelphia TRACON
Sat 12:20:50 PM 40.0167 -75.1667 150° Southeast 244 281 4,000 -250 Descending Philadelphia TRACON
Sat 12:21:50 PM 39.9500 -75.1333 159° South 236 272 4,000  Level Philadelphia TRACON
Sat 12:22:50 PM 39.9000 -75.1000 153° Southeast 227 261 4,000 -100 Level Philadelphia TRACON
Sat 12:23:50 PM 39.8333 -75.0833 169° South 213 245 3,800 -200 Descending Philadelphia TRACON

Login

Don't have an account? Register now (free) for customized features, flight alerts, and more!